Thorco Attraction — V2BS1 — position and weather

sailwx.info

Track history (hours):
 
Tides and Currents Weather Stations Pressure Air Temp Water Temp Dewpoint Dewpoint Depression Visibility Wind Speed Wind Dir Waves Ship Positions

Thorco Attraction

Last reported at 2015-Apr-19 16:19 UTC. Time now 2015-Apr-28 14:30 UTC.
Position N 39°50' E 018°30'.
Warning: this ship's position is 8 days out of date.

Length 132 m; draft 5.8 m.

Type: Cargo ship. MMSI: 304908000.

Date/timePositionNaut miles runAvg speedWind from/ knotsBaromVisibWave heightAir tempDewpointWater temp
2015-Apr-19 16:19N 39°50' E 018°30'168 8.5
2015-Apr-18 20:32N 38°20' E 015°27'1212.7
2015-Apr-18 19:34N 38°19' E 015°11'5212.4
2015-Apr-18 15:23N 38°17' E 014°05'2312.4
2015-Apr-18 13:33N 38°17' E 013°36'1212.3
2015-Apr-18 12:33N 38°17' E 013°21'3712.3
2015-Apr-18 09:33N 38°14' E 012°34'1212.0
2015-Apr-18 08:33N 38°12' E 012°19'1211.9
2015-Apr-18 07:33N 38°11' E 012°04'1312.5
2015-Apr-18 06:33N 38°08' E 011°48'7013.9
2015-Apr-18 01:33N 37°57' E 010°21'1513.3
2015-Apr-18 00:27N 37°55' E 010°02'4513.7
2015-Apr-17 21:11N 37°48' E 009°06'  
2015-Apr-11 05:33N 36°00' W 005°15'1312.7
2015-Apr-11 04:33N 35°56' W 005°30'23510.5
2015-Apr-10 06:15N 37°45' W 009°51'1211.8
2015-Apr-10 05:13N 37°57' W 009°54'1111.9
2015-Apr-10 04:18N 38°07' W 009°58'912.3
2015-Apr-10 03:33N 38°16' W 010°00'1212.2
2015-Apr-10 02:33N 38°28' W 010°04'1212.2
2015-Apr-10 01:33N 38°40' W 010°08'1212.0
2015-Apr-10 00:33N 38°52' W 010°08'1212.1
2015-Apr-09 23:33N 39°04' W 010°08'1312.4
2015-Apr-09 22:32N 39°16' W 010°08'1212.3
2015-Apr-09 21:33N 39°28' W 010°08'  
Track history (hours):
 
Tides and Currents Weather Stations Pressure Air Temp Water Temp Dewpoint Dewpoint Depression Visibility Wind Speed Wind Dir Waves Ship Positions

Thorco Attraction

Last reported at 2015-Apr-19 16:19 UTC. Time now 2015-Apr-28 14:30 UTC.
Position N 39°50' E 018°30'.
Warning: this ship's position is 8 days out of date.

Length 132 m; draft 5.8 m.

Type: Cargo ship. MMSI: 304908000.

Date/timePositionNaut miles runAvg speedWind from/ knotsBaromVisibWave heightAir tempDewpointWater temp
2015-Apr-19 16:19N 39°50' E 018°30'168 8.5
2015-Apr-18 20:32N 38°20' E 015°27'1212.7
2015-Apr-18 19:34N 38°19' E 015°11'5212.4
2015-Apr-18 15:23N 38°17' E 014°05'2312.4
2015-Apr-18 13:33N 38°17' E 013°36'1212.3
2015-Apr-18 12:33N 38°17' E 013°21'3712.3
2015-Apr-18 09:33N 38°14' E 012°34'1212.0
2015-Apr-18 08:33N 38°12' E 012°19'1211.9
2015-Apr-18 07:33N 38°11' E 012°04'1312.5
2015-Apr-18 06:33N 38°08' E 011°48'7013.9
2015-Apr-18 01:33N 37°57' E 010°21'1513.3
2015-Apr-18 00:27N 37°55' E 010°02'4513.7
2015-Apr-17 21:11N 37°48' E 009°06'  
2015-Apr-11 05:33N 36°00' W 005°15'1312.7
2015-Apr-11 04:33N 35°56' W 005°30'23510.5
2015-Apr-10 06:15N 37°45' W 009°51'1211.8
2015-Apr-10 05:13N 37°57' W 009°54'1111.9
2015-Apr-10 04:18N 38°07' W 009°58'912.3
2015-Apr-10 03:33N 38°16' W 010°00'1212.2
2015-Apr-10 02:33N 38°28' W 010°04'1212.2
2015-Apr-10 01:33N 38°40' W 010°08'1212.0
2015-Apr-10 00:33N 38°52' W 010°08'1212.1
2015-Apr-09 23:33N 39°04' W 010°08'1312.4
2015-Apr-09 22:32N 39°16' W 010°08'1212.3
2015-Apr-09 21:33N 39°28' W 010°08'  

Dump ship's entire track history